createdAt,value
2023-04-03T00:01:26.081Z,1.40
2023-04-03T00:03:56.567Z,1.30
2023-04-03T00:06:25.855Z,1.30
2023-04-03T00:08:54.311Z,1.30
2023-04-03T00:11:22.795Z,1.30
2023-04-03T00:13:51.058Z,1.30
2023-04-03T00:16:19.671Z,1.20
2023-04-03T00:18:47.909Z,1.20
2023-04-03T00:21:17.570Z,1.20
2023-04-03T00:23:45.842Z,1.20
2023-04-03T00:26:14.434Z,1.10
2023-04-03T00:28:42.844Z,1.00
2023-04-03T00:31:12.121Z,0.90
2023-04-03T00:33:40.428Z,0.80
2023-04-03T00:36:10.342Z,0.80
2023-04-03T00:38:40.624Z,0.80
2023-04-03T00:41:09.576Z,0.80
2023-04-03T00:43:37.875Z,0.80
2023-04-03T00:46:06.590Z,0.70
2023-04-03T00:48:40.839Z,0.70
2023-04-03T00:51:14.978Z,0.70
2023-04-03T00:53:50.455Z,0.70
2023-04-03T00:56:22.850Z,0.70
2023-04-03T00:58:56.381Z,0.70
2023-04-03T01:01:27.408Z,0.70
2023-04-03T01:03:55.759Z,0.70
2023-04-03T01:06:28.744Z,0.70
2023-04-03T01:08:58.861Z,0.60
2023-04-03T01:11:27.795Z,0.70
2023-04-03T01:13:56.355Z,0.60
2023-04-03T01:16:25.069Z,0.60
2023-04-03T01:18:53.484Z,0.60
2023-04-03T01:22:14.194Z,0.60
2023-04-03T01:24:43.904Z,0.60
2023-04-03T01:27:14.019Z,0.60
2023-04-03T01:29:44.501Z,0.50
2023-04-03T01:32:14.552Z,0.50
2023-04-03T01:34:42.864Z,0.50
2023-04-03T01:37:11.232Z,0.50
2023-04-03T01:39:39.636Z,0.60
2023-04-03T01:42:07.989Z,0.50
2023-04-03T01:44:36.622Z,0.50
2023-04-03T01:47:07.603Z,0.50
2023-04-03T01:49:37.311Z,0.50
2023-04-03T01:52:05.926Z,0.50
2023-04-03T01:54:34.599Z,0.50
2023-04-03T01:57:02.962Z,0.50
2023-04-03T01:59:31.302Z,0.40
2023-04-03T02:01:59.709Z,0.40
2023-04-03T02:04:28.099Z,0.40
2023-04-03T02:06:57.847Z,0.40
2023-04-03T02:09:27.567Z,0.40
2023-04-03T02:11:56.085Z,0.40
2023-04-03T02:14:24.701Z,0.40
2023-04-03T02:16:53.067Z,0.40
2023-04-03T02:19:21.854Z,0.40
2023-04-03T02:21:50.257Z,0.30
2023-04-03T02:24:19.826Z,0.30
2023-04-03T02:26:48.080Z,0.30
2023-04-03T02:29:16.468Z,0.30
2023-04-03T02:31:44.669Z,0.30
2023-04-03T02:34:13.148Z,0.30
2023-04-03T02:36:41.430Z,0.30
2023-04-03T02:39:10.240Z,0.30
2023-04-03T02:41:39.890Z,0.30
2023-04-03T02:44:10.896Z,0.30
2023-04-03T02:46:39.287Z,0.40
2023-04-03T02:49:07.887Z,0.40
2023-04-03T02:51:36.141Z,0.50
2023-04-03T02:54:04.711Z,0.50
2023-04-03T02:56:33.089Z,0.60
2023-04-03T02:59:02.899Z,0.60
2023-04-03T03:01:33.453Z,0.70
2023-04-03T03:04:02.372Z,0.80
2023-04-03T03:06:30.788Z,0.90
2023-04-03T03:08:58.989Z,0.90
2023-04-03T03:11:27.497Z,1.00
2023-04-03T03:13:55.760Z,1.00
2023-04-03T03:16:25.535Z,1.10
2023-04-03T03:18:53.839Z,1.20
2023-04-03T03:21:22.098Z,1.20
2023-04-03T03:23:50.508Z,1.20
2023-04-03T03:26:18.763Z,1.20
2023-04-03T03:28:47.375Z,1.30
2023-04-03T03:31:16.472Z,1.30
2023-04-03T03:33:46.161Z,1.40
2023-04-03T03:36:14.453Z,1.40
2023-04-03T03:38:42.779Z,1.40
2023-04-03T03:41:11.134Z,1.50
2023-04-03T03:43:39.662Z,1.50
2023-04-03T03:46:07.859Z,1.50
2023-04-03T03:48:36.378Z,1.50
2023-04-03T03:51:06.159Z,1.50
2023-04-03T03:53:34.529Z,1.50
2023-04-03T03:56:02.761Z,1.50
2023-04-03T03:58:31.039Z,1.50
2023-04-03T04:00:59.901Z,1.50
2023-04-03T04:03:28.266Z,1.50
2023-04-03T04:05:56.582Z,1.50
2023-04-03T04:08:26.439Z,1.50
2023-04-03T04:10:55.397Z,1.50
2023-04-03T04:13:23.722Z,1.40
2023-04-03T04:15:51.936Z,1.40
2023-04-03T04:18:21.281Z,1.40
2023-04-03T04:20:49.714Z,1.40
2023-04-03T04:23:19.647Z,1.40
2023-04-03T04:25:50.428Z,1.40
2023-04-03T04:28:19.023Z,1.40
2023-04-03T04:30:47.737Z,1.40
2023-04-03T04:33:16.151Z,1.40
2023-04-03T04:35:44.824Z,1.40
2023-04-03T04:38:13.220Z,1.40
2023-04-03T04:40:42.486Z,1.30
2023-04-03T04:43:15.350Z,1.40
2023-04-03T04:45:43.981Z,1.40
2023-04-03T04:48:12.399Z,1.40
2023-04-03T04:50:40.832Z,1.40
2023-04-03T04:53:09.579Z,1.40
2023-04-03T04:55:38.134Z,1.40
2023-04-03T04:58:06.761Z,1.30
2023-04-03T05:00:36.708Z,1.40
2023-04-03T05:03:05.220Z,1.30
2023-04-03T05:05:33.508Z,1.40
2023-04-03T05:08:01.730Z,1.30
2023-04-03T05:10:30.087Z,1.30
2023-04-03T05:12:58.374Z,1.40
2023-04-03T05:15:26.646Z,1.30
2023-04-03T05:17:56.362Z,1.40
2023-04-03T05:20:25.937Z,1.30
2023-04-03T05:22:54.268Z,1.40
2023-04-03T05:25:22.527Z,1.30
2023-04-03T05:27:51.014Z,1.30
2023-04-03T05:30:19.845Z,1.40
2023-04-03T05:32:49.475Z,1.30
2023-04-03T05:35:19.420Z,1.30
2023-04-03T05:37:48.000Z,1.40
2023-04-03T05:40:18.529Z,1.40
2023-04-03T05:42:46.973Z,1.40
2023-04-03T05:45:15.423Z,1.50
2023-04-03T05:47:43.795Z,1.50
2023-04-03T05:50:12.633Z,1.50
2023-04-03T05:52:46.996Z,1.60
2023-04-03T05:55:15.563Z,1.70
2023-04-03T05:57:44.159Z,1.70
2023-04-03T06:00:16.615Z,1.80
2023-04-03T06:02:45.366Z,1.90
2023-04-03T06:05:14.239Z,2.00
2023-04-03T06:07:44.591Z,2.10
2023-04-03T06:10:14.854Z,2.20
2023-04-03T06:12:43.118Z,2.30
2023-04-03T06:15:12.810Z,2.40
2023-04-03T06:17:41.174Z,2.60
2023-04-03T06:20:11.098Z,2.90
2023-04-03T06:22:39.472Z,3.10
2023-04-03T06:25:11.862Z,3.30
2023-04-03T06:27:40.435Z,3.50
2023-04-03T06:30:10.628Z,3.70
2023-04-03T06:32:38.894Z,3.80
2023-04-03T06:35:09.566Z,4.00
2023-04-03T06:37:37.884Z,4.10
2023-04-03T06:40:11.866Z,4.20
2023-04-03T06:42:40.501Z,4.20
2023-04-03T06:45:11.227Z,4.30
2023-04-03T06:47:39.667Z,4.50
2023-04-03T06:50:10.030Z,4.60
2023-04-03T06:52:38.277Z,4.60
2023-04-03T06:55:09.328Z,4.70
2023-04-03T06:57:37.872Z,4.70
2023-04-03T07:00:10.166Z,4.80
2023-04-03T07:02:38.564Z,4.90
2023-04-03T07:05:08.216Z,4.90
2023-04-03T07:07:36.665Z,5.00
2023-04-03T07:10:05.752Z,5.10
2023-04-03T07:12:35.645Z,5.20
2023-04-03T07:15:04.002Z,5.20
2023-04-03T07:17:32.351Z,5.30
2023-04-03T07:20:00.606Z,5.30
2023-04-03T07:22:29.171Z,5.30
2023-04-03T07:24:57.413Z,5.40
2023-04-03T07:27:26.163Z,5.50
2023-04-03T07:29:57.091Z,5.50
2023-04-03T07:32:25.347Z,5.60
2023-04-03T07:34:53.588Z,5.60
2023-04-03T07:37:21.892Z,5.50
2023-04-03T07:39:50.250Z,5.40
2023-04-03T07:42:18.777Z,5.50
2023-04-03T07:44:47.446Z,5.60
2023-04-03T07:47:18.246Z,5.70
2023-04-03T07:49:46.571Z,5.80
2023-04-03T07:52:15.742Z,5.80
2023-04-03T07:54:44.416Z,5.80
2023-04-03T07:57:12.913Z,5.80
2023-04-03T07:59:43.771Z,6.00
2023-04-03T08:02:12.408Z,6.10
2023-04-03T08:04:42.086Z,6.20
2023-04-03T08:07:10.495Z,6.40
2023-04-03T08:09:39.063Z,6.50
2023-04-03T08:12:07.832Z,6.50
2023-04-03T08:14:36.592Z,6.70
2023-04-03T08:17:06.220Z,6.70
2023-04-03T08:19:34.594Z,6.70
2023-04-03T08:22:04.989Z,6.70
2023-04-03T08:24:33.420Z,6.80
2023-04-03T08:27:01.897Z,6.80
2023-04-03T08:29:30.968Z,7.10
2023-04-03T08:32:00.294Z,7.20
2023-04-03T08:34:28.582Z,7.30
2023-04-03T08:36:56.959Z,7.40
2023-04-03T08:39:26.577Z,7.50
2023-04-03T08:41:57.705Z,7.60
2023-04-03T08:44:28.068Z,7.70
2023-04-03T08:47:14.841Z,7.70
2023-04-03T08:49:48.662Z,7.70
2023-04-03T08:52:21.496Z,7.80
2023-04-03T08:54:57.377Z,7.90
2023-04-03T08:57:33.295Z,7.90
2023-04-03T09:00:08.770Z,7.70
2023-04-03T09:02:43.808Z,7.70
2023-04-03T09:05:18.644Z,7.80
2023-04-03T09:07:50.119Z,7.90
2023-04-03T09:10:29.692Z,8.10
2023-04-03T09:13:05.062Z,8.20
2023-04-03T09:15:38.939Z,8.20
2023-04-03T09:18:17.057Z,8.10
2023-04-03T09:20:54.544Z,8.10
2023-04-03T09:23:31.181Z,8.10
2023-04-03T09:26:06.082Z,8.30
2023-04-03T09:28:49.262Z,8.20
2023-04-03T09:31:25.755Z,8.40
2023-04-03T09:33:59.434Z,8.50
2023-04-03T09:36:46.650Z,8.50
2023-04-03T09:39:19.555Z,8.50
2023-04-03T09:42:02.273Z,8.50
2023-04-03T09:44:33.616Z,8.70
2023-04-03T09:47:02.603Z,8.80
2023-04-03T09:49:30.980Z,8.90
2023-04-03T09:51:59.373Z,9.10
2023-04-03T09:54:41.745Z,9.10
2023-04-03T09:57:15.162Z,9.20
2023-04-03T09:59:49.232Z,9.20
2023-04-03T10:02:38.061Z,9.20
2023-04-03T10:05:28.726Z,9.30
2023-04-03T10:08:12.846Z,9.30
2023-04-03T10:10:42.166Z,9.50
2023-04-03T10:13:20.918Z,9.40
2023-04-03T10:15:58.038Z,9.50
2023-04-03T10:18:35.439Z,9.40
2023-04-03T10:21:17.410Z,9.40
2023-04-03T10:24:05.353Z,9.40
2023-04-03T10:26:43.611Z,9.50
2023-04-03T10:29:31.218Z,9.50
2023-04-03T10:32:12.048Z,9.80
2023-04-03T10:34:51.683Z,9.80
2023-04-03T10:37:37.650Z,9.80
2023-04-03T10:40:21.471Z,10.00
2023-04-03T10:42:57.671Z,10.00
2023-04-03T10:45:34.027Z,10.00
2023-04-03T10:48:10.801Z,9.80
2023-04-03T10:50:48.787Z,9.80
2023-04-03T10:53:27.852Z,9.90
2023-04-03T10:56:03.451Z,10.20
2023-04-03T10:58:35.622Z,10.30
2023-04-03T11:01:11.361Z,10.30
2023-04-03T11:03:43.963Z,10.30
2023-04-03T11:06:15.822Z,10.40
2023-04-03T11:08:51.477Z,10.50
2023-04-03T11:11:24.631Z,10.60
2023-04-03T11:13:57.490Z,10.60
2023-04-03T11:16:32.018Z,10.60
2023-04-03T11:19:07.540Z,10.60
2023-04-03T11:21:41.937Z,10.90
2023-04-03T11:24:23.058Z,11.00
2023-04-03T11:26:53.345Z,11.10
2023-04-03T11:29:34.881Z,11.30
2023-04-03T11:32:24.142Z,11.40
2023-04-03T11:34:55.502Z,11.40
2023-04-03T11:37:33.912Z,11.50
2023-04-03T11:40:08.282Z,11.70
2023-04-03T11:42:40.528Z,11.40
2023-04-03T11:45:40.546Z,11.60
2023-04-03T11:48:52.620Z,11.70
2023-04-03T11:51:43.527Z,11.70
2023-04-03T11:54:50.694Z,11.60
2023-04-03T11:57:51.453Z,11.60
2023-04-03T12:01:07.100Z,11.80
2023-04-03T12:04:16.035Z,11.40
2023-04-03T12:07:27.208Z,11.70
2023-04-03T12:10:03.085Z,11.80
2023-04-03T12:12:37.137Z,11.70
2023-04-03T12:15:50.386Z,11.80
2023-04-03T12:18:44.928Z,11.70
2023-04-03T12:21:19.445Z,11.80
2023-04-03T12:24:03.778Z,11.90
2023-04-03T12:26:48.017Z,11.80
2023-04-03T12:29:24.705Z,11.70
2023-04-03T12:32:10.308Z,11.80
2023-04-03T12:34:53.712Z,11.90
2023-04-03T12:37:46.488Z,11.80
2023-04-03T12:40:26.715Z,11.70
2023-04-03T12:43:16.009Z,11.60
2023-04-03T12:45:48.986Z,11.50
2023-04-03T12:48:20.544Z,11.50
2023-04-03T12:50:51.161Z,11.50
2023-04-03T12:53:24.711Z,11.40
2023-04-03T12:55:57.712Z,11.30
2023-04-03T12:58:27.677Z,11.20
2023-04-03T13:01:05.018Z,11.20
2023-04-03T13:03:33.861Z,11.20
2023-04-03T13:06:04.369Z,11.20
2023-04-03T13:08:34.650Z,11.00
2023-04-03T13:11:08.457Z,11.00
2023-04-03T13:13:36.843Z,11.00
2023-04-03T13:16:12.256Z,11.00
2023-04-03T13:18:41.279Z,10.90
2023-04-03T13:21:17.762Z,10.80
2023-04-03T13:23:55.213Z,10.80
2023-04-03T13:26:30.314Z,10.80
2023-04-03T13:29:03.850Z,10.80
2023-04-03T13:31:35.491Z,10.80
2023-04-03T13:34:09.497Z,10.80
2023-04-03T13:36:41.387Z,10.90
2023-04-03T13:39:27.540Z,11.00
2023-04-03T13:41:59.466Z,11.00
2023-04-03T13:44:36.301Z,10.90
2023-04-03T13:47:21.105Z,10.70
2023-04-03T13:50:04.171Z,10.80
2023-04-03T13:52:37.056Z,10.90
2023-04-03T13:55:25.981Z,10.80
2023-04-03T13:57:59.170Z,10.70
2023-04-03T14:00:40.693Z,10.70
2023-04-03T14:03:21.858Z,10.70
2023-04-03T14:05:50.050Z,10.80
2023-04-03T14:08:19.471Z,10.70
2023-04-03T14:10:54.051Z,10.70
2023-04-03T14:13:23.391Z,10.60
2023-04-03T14:15:53.940Z,10.70
2023-04-03T14:18:23.616Z,10.60
2023-04-03T14:20:52.738Z,10.70
2023-04-03T14:23:21.105Z,10.80
2023-04-03T14:25:49.674Z,10.70
2023-04-03T14:28:22.618Z,10.70
2023-04-03T14:30:52.553Z,10.70
2023-04-03T14:33:24.835Z,10.60
2023-04-03T14:35:55.057Z,10.60
2023-04-03T14:38:28.915Z,10.60
2023-04-03T14:41:06.569Z,10.50
2023-04-03T14:43:46.741Z,10.50
2023-04-03T14:46:18.607Z,10.50
2023-04-03T14:48:47.787Z,10.50
2023-04-03T14:51:17.669Z,10.40
2023-04-03T14:53:46.860Z,10.40
2023-04-03T14:56:18.322Z,10.30
2023-04-03T14:58:51.350Z,10.20
2023-04-03T15:01:20.686Z,10.10
2023-04-03T15:03:49.123Z,10.20
2023-04-03T15:06:18.250Z,10.20
2023-04-03T15:08:48.318Z,10.20
2023-04-03T15:11:17.478Z,10.10
2023-04-03T15:13:47.682Z,10.20
2023-04-03T15:16:20.604Z,10.10
2023-04-03T15:18:50.042Z,10.00
2023-04-03T15:21:18.305Z,10.00
2023-04-03T15:23:46.737Z,9.90
2023-04-03T15:26:15.110Z,9.90
2023-04-03T15:28:48.554Z,9.90
2023-04-03T15:31:18.326Z,9.90
2023-04-03T15:33:46.705Z,9.90
2023-04-03T15:36:29.189Z,9.80
2023-04-03T15:39:02.115Z,9.70
2023-04-03T15:41:30.430Z,9.70
2023-04-03T15:43:59.335Z,9.60
2023-04-03T15:46:29.202Z,9.60
2023-04-03T15:48:58.169Z,9.60
2023-04-03T15:51:26.752Z,9.60
2023-04-03T15:53:55.065Z,9.50
2023-04-03T15:56:23.454Z,9.50
2023-04-03T15:58:51.748Z,9.50
2023-04-03T16:01:20.438Z,9.50
2023-04-03T16:03:50.432Z,9.40
2023-04-03T16:06:20.299Z,9.30
2023-04-03T16:08:50.204Z,9.30
2023-04-03T16:11:18.621Z,9.20
2023-04-03T16:13:46.906Z,9.30
2023-04-03T16:16:15.426Z,9.20
2023-04-03T16:18:46.237Z,9.20
2023-04-03T16:21:18.397Z,9.20
2023-04-03T16:23:47.435Z,9.20
2023-04-03T16:26:16.261Z,9.10
2023-04-03T16:28:44.666Z,9.10
2023-04-03T16:31:13.270Z,9.00
2023-04-03T16:33:41.702Z,9.00
2023-04-03T16:36:10.385Z,8.80
2023-04-03T16:38:40.091Z,8.80
2023-04-03T16:41:08.491Z,8.70
2023-04-03T16:43:37.966Z,8.70
2023-04-03T16:46:06.784Z,8.60
2023-04-03T16:48:35.145Z,8.50
2023-04-03T16:51:10.737Z,8.50
2023-04-03T16:53:40.528Z,8.50
2023-04-03T16:56:08.883Z,8.40
2023-04-03T16:58:37.281Z,8.40
2023-04-03T17:01:12.983Z,8.40
2023-04-03T17:03:41.722Z,8.30
2023-04-03T17:06:15.681Z,8.30
2023-04-03T17:08:46.825Z,8.20
2023-04-03T17:11:15.012Z,8.20
2023-04-03T17:13:43.347Z,8.10
2023-04-03T17:16:16.674Z,8.10
2023-04-03T17:18:45.805Z,8.10
2023-04-03T17:21:15.847Z,8.00
2023-04-03T17:23:50.519Z,8.00
2023-04-03T17:26:18.913Z,8.00
2023-04-03T17:28:47.240Z,7.90
2023-04-03T17:31:15.603Z,7.90
2023-04-03T17:33:44.060Z,7.90
2023-04-03T17:36:12.864Z,7.90
2023-04-03T17:38:41.487Z,7.80
2023-04-03T17:41:11.572Z,7.80
2023-04-03T17:43:39.876Z,7.70
2023-04-03T17:46:12.881Z,7.70
2023-04-03T17:48:42.521Z,7.70
2023-04-03T17:51:13.709Z,7.60
2023-04-03T17:53:42.380Z,7.60
2023-04-03T17:56:15.013Z,7.50
2023-04-03T17:58:44.235Z,7.50
2023-04-03T18:01:15.891Z,7.40
2023-04-03T18:03:44.735Z,7.30
2023-04-03T18:06:16.211Z,7.30
2023-04-03T18:08:47.487Z,7.30
2023-04-03T18:11:18.251Z,7.20
2023-04-03T18:13:47.673Z,7.20
2023-04-03T18:16:16.513Z,7.10
2023-04-03T18:18:44.916Z,7.10
2023-04-03T18:21:15.419Z,7.00
2023-04-03T18:23:48.552Z,7.00
2023-04-03T18:26:20.787Z,6.90
2023-04-03T18:28:56.797Z,6.90
2023-04-03T18:31:27.696Z,6.80
2023-04-03T18:33:58.902Z,6.80
2023-04-03T18:36:27.423Z,6.70
2023-04-03T18:38:56.159Z,6.70
2023-04-03T18:41:29.929Z,6.70
2023-04-03T18:43:59.156Z,6.60
2023-04-03T18:46:27.469Z,6.50
2023-04-03T18:48:57.030Z,6.50
2023-04-03T18:51:26.243Z,6.50
2023-04-03T18:53:54.515Z,6.40
2023-04-03T18:56:23.053Z,6.40
2023-04-03T18:58:52.584Z,6.30
2023-04-03T19:01:21.080Z,6.30
2023-04-03T19:03:49.394Z,6.20
2023-04-03T19:06:17.590Z,6.20
2023-04-03T19:08:45.770Z,6.20
2023-04-03T19:11:13.844Z,6.10
2023-04-03T19:13:46.927Z,6.10
2023-04-03T19:16:31.436Z,6.00
2023-04-03T19:18:59.546Z,6.00
2023-04-03T19:21:27.673Z,5.90
2023-04-03T19:23:59.235Z,5.90
2023-04-03T19:26:27.638Z,5.80
2023-04-03T19:28:55.775Z,5.80
2023-04-03T19:31:24.094Z,5.80
2023-04-03T19:33:53.593Z,5.70
2023-04-03T19:36:22.014Z,5.70
2023-04-03T19:38:50.272Z,5.60
2023-04-03T19:41:20.248Z,5.60
2023-04-03T19:43:48.578Z,5.60
2023-04-03T19:46:18.678Z,5.60
2023-04-03T19:48:47.392Z,5.50
2023-04-03T19:51:16.895Z,5.50
2023-04-03T19:53:45.280Z,5.50
2023-04-03T19:56:16.063Z,5.40
2023-04-03T19:58:44.726Z,5.40
2023-04-03T20:01:13.410Z,5.30
2023-04-03T20:03:42.668Z,5.30
2023-04-03T20:06:10.944Z,5.20
2023-04-03T20:08:40.489Z,5.20
2023-04-03T20:11:08.799Z,5.20
2023-04-03T20:13:38.511Z,5.10
2023-04-03T20:16:08.275Z,5.00
2023-04-03T20:18:36.970Z,5.00
2023-04-03T20:21:06.939Z,5.00
2023-04-03T20:23:36.496Z,5.00
2023-04-03T20:26:10.941Z,4.90
2023-04-03T20:28:43.772Z,4.90
2023-04-03T20:31:13.698Z,4.90
2023-04-03T20:33:42.074Z,4.90
2023-04-03T20:36:10.656Z,4.80
2023-04-03T20:38:38.901Z,4.80
2023-04-03T20:41:09.270Z,4.80
2023-04-03T20:43:38.449Z,4.70
2023-04-03T20:46:06.609Z,4.70
2023-04-03T20:48:34.742Z,4.70
2023-04-03T20:51:10.233Z,4.70
2023-04-03T20:53:38.805Z,4.60
2023-04-03T20:56:09.124Z,4.60
2023-04-03T20:58:38.880Z,4.60
2023-04-03T21:01:15.100Z,4.50
2023-04-03T21:03:43.566Z,4.50
2023-04-03T21:06:49.682Z,4.50
2023-04-03T21:09:55.690Z,4.40
2023-04-03T21:13:01.577Z,4.30
2023-04-03T21:15:48.023Z,4.30
2023-04-03T21:18:32.730Z,4.30
2023-04-03T21:21:02.660Z,4.30
2023-04-03T21:23:31.081Z,4.20
2023-04-03T21:26:00.713Z,4.20
2023-04-03T21:28:28.900Z,4.20
2023-04-03T21:30:57.073Z,4.20
2023-04-03T21:33:27.329Z,4.10
2023-04-03T21:35:58.812Z,4.10
2023-04-03T21:38:27.522Z,4.10
2023-04-03T21:40:57.779Z,4.00
2023-04-03T21:43:25.897Z,4.00
2023-04-03T21:45:55.753Z,4.00
2023-04-03T21:48:24.308Z,3.90
2023-04-03T21:50:54.378Z,3.90
2023-04-03T21:53:22.728Z,3.90
2023-04-03T21:55:54.694Z,3.90
2023-04-03T21:58:22.982Z,3.80
2023-04-03T22:00:51.126Z,3.80
2023-04-03T22:03:22.519Z,3.80
2023-04-03T22:05:50.605Z,3.80
2023-04-03T22:08:20.464Z,3.80
2023-04-03T22:10:48.558Z,3.70
2023-04-03T22:13:16.681Z,3.70
2023-04-03T22:15:48.274Z,3.70
2023-04-03T22:18:16.353Z,3.60
2023-04-03T22:20:44.742Z,3.60
2023-04-03T22:23:12.774Z,3.60
2023-04-03T22:25:42.234Z,3.50
2023-04-03T22:28:11.150Z,3.50
2023-04-03T22:30:41.963Z,3.40
2023-04-03T22:33:10.409Z,3.40
2023-04-03T22:35:38.606Z,3.30
2023-04-03T22:38:06.753Z,3.30
2023-04-03T22:40:34.846Z,3.20
2023-04-03T22:43:04.350Z,3.20
2023-04-03T22:45:32.820Z,3.20
2023-04-03T22:48:01.339Z,3.20
2023-04-03T22:50:29.644Z,3.20
2023-04-03T22:52:57.738Z,3.20
2023-04-03T22:55:26.803Z,3.20
2023-04-03T22:57:54.879Z,3.20
2023-04-03T23:00:26.017Z,3.20
2023-04-03T23:02:54.118Z,3.10
2023-04-03T23:05:22.200Z,3.10
2023-04-03T23:07:50.295Z,3.00
2023-04-03T23:10:19.447Z,3.00
2023-04-03T23:12:47.624Z,2.90
2023-04-03T23:15:17.510Z,2.80
2023-04-03T23:17:49.160Z,2.70
2023-04-03T23:20:17.507Z,2.60
2023-04-03T23:22:45.806Z,2.50
2023-04-03T23:25:14.072Z,2.50
2023-04-03T23:27:42.073Z,2.50
2023-04-03T23:30:11.347Z,2.40
2023-04-03T23:32:39.470Z,2.40
2023-04-03T23:35:09.930Z,2.40
2023-04-03T23:37:38.111Z,2.30
2023-04-03T23:40:08.423Z,2.30
2023-04-03T23:42:36.693Z,2.30
2023-04-03T23:45:05.177Z,2.30
2023-04-03T23:47:33.388Z,2.20
2023-04-03T23:50:01.417Z,2.10
2023-04-03T23:52:31.101Z,2.10
2023-04-03T23:54:59.176Z,2.10
2023-04-03T23:57:27.233Z,2.00
2023-04-03T23:59:55.320Z,2.00
